sensor_id;sensor_type;location;lat;lon;timestamp;temperature;humidity
21115;DHT22;10715;48.546;9.896;2023-03-01T00:01:03;-1.80;99.90
21115;DHT22;10715;48.546;9.896;2023-03-01T00:03:29;-1.80;99.90
21115;DHT22;10715;48.546;9.896;2023-03-01T00:05:55;-1.80;99.90
21115;DHT22;10715;48.546;9.896;2023-03-01T00:08:21;-1.80;99.90
21115;DHT22;10715;48.546;9.896;2023-03-01T00:10:46;-1.80;99.90
21115;DHT22;10715;48.546;9.896;2023-03-01T00:13:12;-1.80;99.90
21115;DHT22;10715;48.546;9.896;2023-03-01T00:15:39;-1.80;99.90
21115;DHT22;10715;48.546;9.896;2023-03-01T00:18:05;-1.80;99.90
21115;DHT22;10715;48.546;9.896;2023-03-01T00:20:31;-1.80;99.90
21115;DHT22;10715;48.546;9.896;2023-03-01T00:22:57;-1.80;99.90
21115;DHT22;10715;48.546;9.896;2023-03-01T00:25:23;-1.80;99.90
21115;DHT22;10715;48.546;9.896;2023-03-01T00:27:48;-1.80;99.90
21115;DHT22;10715;48.546;9.896;2023-03-01T00:30:14;-1.80;99.90
21115;DHT22;10715;48.546;9.896;2023-03-01T00:32:40;-1.80;99.90
21115;DHT22;10715;48.546;9.896;2023-03-01T00:35:06;-1.80;99.90
21115;DHT22;10715;48.546;9.896;2023-03-01T00:37:32;-1.80;99.90
21115;DHT22;10715;48.546;9.896;2023-03-01T00:39:57;-1.80;99.90
21115;DHT22;10715;48.546;9.896;2023-03-01T00:42:23;-1.80;99.90
21115;DHT22;10715;48.546;9.896;2023-03-01T00:44:49;-1.80;99.90
21115;DHT22;10715;48.546;9.896;2023-03-01T00:47:15;-1.80;99.90
21115;DHT22;10715;48.546;9.896;2023-03-01T00:49:40;-1.80;99.90
21115;DHT22;10715;48.546;9.896;2023-03-01T00:52:06;-1.80;99.90
21115;DHT22;10715;48.546;9.896;2023-03-01T00:54:31;-1.80;99.90
21115;DHT22;10715;48.546;9.896;2023-03-01T00:56:57;-1.80;99.90
21115;DHT22;10715;48.546;9.896;2023-03-01T00:59:23;-1.80;99.90
21115;DHT22;10715;48.546;9.896;2023-03-01T01:01:49;-1.80;99.90
21115;DHT22;10715;48.546;9.896;2023-03-01T01:04:14;-1.80;99.90
21115;DHT22;10715;48.546;9.896;2023-03-01T01:06:43;-1.80;99.90
21115;DHT22;10715;48.546;9.896;2023-03-01T01:09:11;-1.70;99.90
21115;DHT22;10715;48.546;9.896;2023-03-01T01:11:43;-1.70;99.90
21115;DHT22;10715;48.546;9.896;2023-03-01T01:14:09;-1.70;99.90
21115;DHT22;10715;48.546;9.896;2023-03-01T01:16:35;-1.70;99.90
21115;DHT22;10715;48.546;9.896;2023-03-01T01:19:01;-1.70;99.90
21115;DHT22;10715;48.546;9.896;2023-03-01T01:23:55;-1.70;99.90
21115;DHT22;10715;48.546;9.896;2023-03-01T01:26:32;-1.60;99.90
21115;DHT22;10715;48.546;9.896;2023-03-01T01:28:59;-1.60;99.90
21115;DHT22;10715;48.546;9.896;2023-03-01T01:31:26;-1.60;99.90
21115;DHT22;10715;48.546;9.896;2023-03-01T01:33:54;-1.60;99.90
21115;DHT22;10715;48.546;9.896;2023-03-01T01:36:20;-1.60;99.90
21115;DHT22;10715;48.546;9.896;2023-03-01T01:38:45;-1.60;99.90
21115;DHT22;10715;48.546;9.896;2023-03-01T01:41:12;-1.60;99.90
21115;DHT22;10715;48.546;9.896;2023-03-01T01:43:43;-1.60;99.90
21115;DHT22;10715;48.546;9.896;2023-03-01T01:48:52;-1.50;99.90
21115;DHT22;10715;48.546;9.896;2023-03-01T01:51:24;-1.50;99.90
21115;DHT22;10715;48.546;9.896;2023-03-01T01:53:55;-1.50;99.90
21115;DHT22;10715;48.546;9.896;2023-03-01T01:56:22;-1.50;99.90
21115;DHT22;10715;48.546;9.896;2023-03-01T01:58:49;-1.50;99.90
21115;DHT22;10715;48.546;9.896;2023-03-01T02:01:16;-1.50;99.90
21115;DHT22;10715;48.546;9.896;2023-03-01T02:03:43;-1.50;99.90
21115;DHT22;10715;48.546;9.896;2023-03-01T02:08:37;-1.50;99.90
21115;DHT22;10715;48.546;9.896;2023-03-01T02:11:04;-1.50;99.90
21115;DHT22;10715;48.546;9.896;2023-03-01T02:13:32;-1.50;99.90
21115;DHT22;10715;48.546;9.896;2023-03-01T02:15:58;-1.50;99.90
21115;DHT22;10715;48.546;9.896;2023-03-01T02:18:25;-1.50;99.90
21115;DHT22;10715;48.546;9.896;2023-03-01T02:23:27;-1.40;99.90
21115;DHT22;10715;48.546;9.896;2023-03-01T02:30:56;-1.40;99.90
21115;DHT22;10715;48.546;9.896;2023-03-01T02:33:41;-1.40;99.90
21115;DHT22;10715;48.546;9.896;2023-03-01T02:36:12;-1.40;99.90
21115;DHT22;10715;48.546;9.896;2023-03-01T02:38:41;-1.40;99.90
21115;DHT22;10715;48.546;9.896;2023-03-01T02:41:08;-1.40;99.90
21115;DHT22;10715;48.546;9.896;2023-03-01T02:43:34;-1.40;99.90
21115;DHT22;10715;48.546;9.896;2023-03-01T02:46:13;-1.40;99.90
21115;DHT22;10715;48.546;9.896;2023-03-01T02:48:48;-1.40;99.90
21115;DHT22;10715;48.546;9.896;2023-03-01T02:56:18;-1.40;99.90
21115;DHT22;10715;48.546;9.896;2023-03-01T02:58:44;-1.40;99.90
21115;DHT22;10715;48.546;9.896;2023-03-01T03:01:20;-1.40;99.90
21115;DHT22;10715;48.546;9.896;2023-03-01T03:03:46;-1.40;99.90
21115;DHT22;10715;48.546;9.896;2023-03-01T03:06:12;-1.40;99.90
21115;DHT22;10715;48.546;9.896;2023-03-01T03:08:38;-1.50;99.90
21115;DHT22;10715;48.546;9.896;2023-03-01T03:11:04;-1.40;99.90
21115;DHT22;10715;48.546;9.896;2023-03-01T03:13:30;-1.40;99.90
21115;DHT22;10715;48.546;9.896;2023-03-01T03:15:56;-1.40;99.90
21115;DHT22;10715;48.546;9.896;2023-03-01T03:18:24;-1.40;99.90
21115;DHT22;10715;48.546;9.896;2023-03-01T03:20:53;-1.50;99.90
21115;DHT22;10715;48.546;9.896;2023-03-01T03:23:21;-1.40;99.90
21115;DHT22;10715;48.546;9.896;2023-03-01T03:25:49;-1.40;99.90
21115;DHT22;10715;48.546;9.896;2023-03-01T03:28:14;-1.40;99.90
21115;DHT22;10715;48.546;9.896;2023-03-01T03:30:41;-1.50;99.90
21115;DHT22;10715;48.546;9.896;2023-03-01T03:33:09;-1.50;99.90
21115;DHT22;10715;48.546;9.896;2023-03-01T03:35:44;-1.40;99.90
21115;DHT22;10715;48.546;9.896;2023-03-01T03:38:12;-1.40;99.90
21115;DHT22;10715;48.546;9.896;2023-03-01T03:43:11;-1.40;99.90
21115;DHT22;10715;48.546;9.896;2023-03-01T03:45:40;-1.40;99.90
21115;DHT22;10715;48.546;9.896;2023-03-01T03:48:08;-1.40;99.90
21115;DHT22;10715;48.546;9.896;2023-03-01T03:50:35;-1.40;99.90
21115;DHT22;10715;48.546;9.896;2023-03-01T03:53:03;-1.40;99.90
21115;DHT22;10715;48.546;9.896;2023-03-01T03:55:29;-1.40;99.90
21115;DHT22;10715;48.546;9.896;2023-03-01T03:57:58;-1.40;99.90
21115;DHT22;10715;48.546;9.896;2023-03-01T04:00:27;-1.40;99.90
21115;DHT22;10715;48.546;9.896;2023-03-01T04:02:53;-1.40;99.90
21115;DHT22;10715;48.546;9.896;2023-03-01T04:05:22;-1.40;99.90
21115;DHT22;10715;48.546;9.896;2023-03-01T04:07:48;-1.40;99.90
21115;DHT22;10715;48.546;9.896;2023-03-01T04:10:16;-1.40;99.90
21115;DHT22;10715;48.546;9.896;2023-03-01T04:12:43;-1.40;99.90
21115;DHT22;10715;48.546;9.896;2023-03-01T04:15:10;-1.40;99.90
21115;DHT22;10715;48.546;9.896;2023-03-01T04:17:43;-1.40;99.90
21115;DHT22;10715;48.546;9.896;2023-03-01T04:20:12;-1.40;99.90
21115;DHT22;10715;48.546;9.896;2023-03-01T04:22:38;-1.40;99.90
21115;DHT22;10715;48.546;9.896;2023-03-01T04:25:04;-1.40;99.90
21115;DHT22;10715;48.546;9.896;2023-03-01T04:27:33;-1.40;99.90
21115;DHT22;10715;48.546;9.896;2023-03-01T04:29:59;-1.40;99.90
21115;DHT22;10715;48.546;9.896;2023-03-01T04:32:25;-1.40;99.90
21115;DHT22;10715;48.546;9.896;2023-03-01T04:34:50;-1.40;99.90
21115;DHT22;10715;48.546;9.896;2023-03-01T04:37:16;-1.40;99.90
21115;DHT22;10715;48.546;9.896;2023-03-01T04:39:42;-1.40;99.90
21115;DHT22;10715;48.546;9.896;2023-03-01T04:42:11;-1.30;99.90
21115;DHT22;10715;48.546;9.896;2023-03-01T04:44:37;-1.40;99.90
21115;DHT22;10715;48.546;9.896;2023-03-01T04:47:03;-1.30;99.90
21115;DHT22;10715;48.546;9.896;2023-03-01T04:49:29;-1.30;99.90
21115;DHT22;10715;48.546;9.896;2023-03-01T04:51:54;-1.30;99.90
21115;DHT22;10715;48.546;9.896;2023-03-01T04:54:20;-1.30;99.90
21115;DHT22;10715;48.546;9.896;2023-03-01T04:56:46;-1.30;99.90
21115;DHT22;10715;48.546;9.896;2023-03-01T04:59:11;-1.30;99.90
21115;DHT22;10715;48.546;9.896;2023-03-01T05:01:38;-1.30;99.90
21115;DHT22;10715;48.546;9.896;2023-03-01T05:04:03;-1.30;99.90
21115;DHT22;10715;48.546;9.896;2023-03-01T05:06:31;-1.30;99.90
21115;DHT22;10715;48.546;9.896;2023-03-01T05:08:57;-1.30;99.90
21115;DHT22;10715;48.546;9.896;2023-03-01T05:11:23;-1.30;99.90
21115;DHT22;10715;48.546;9.896;2023-03-01T05:13:48;-1.40;99.90
21115;DHT22;10715;48.546;9.896;2023-03-01T05:16:20;-1.30;99.90
21115;DHT22;10715;48.546;9.896;2023-03-01T05:18:45;-1.30;99.90
21115;DHT22;10715;48.546;9.896;2023-03-01T05:21:13;-1.30;99.90
21115;DHT22;10715;48.546;9.896;2023-03-01T05:23:41;-1.40;99.90
21115;DHT22;10715;48.546;9.896;2023-03-01T05:26:08;-1.40;99.90
21115;DHT22;10715;48.546;9.896;2023-03-01T05:28:34;-1.40;99.90
21115;DHT22;10715;48.546;9.896;2023-03-01T05:31:00;-1.40;99.90
21115;DHT22;10715;48.546;9.896;2023-03-01T05:33:26;-1.40;99.90
21115;DHT22;10715;48.546;9.896;2023-03-01T05:35:52;-1.50;99.90
21115;DHT22;10715;48.546;9.896;2023-03-01T05:38:19;-1.50;99.90
21115;DHT22;10715;48.546;9.896;2023-03-01T05:40:47;-1.60;99.90
21115;DHT22;10715;48.546;9.896;2023-03-01T05:43:14;-1.60;99.90
21115;DHT22;10715;48.546;9.896;2023-03-01T05:45:41;-1.70;99.90
21115;DHT22;10715;48.546;9.896;2023-03-01T05:48:08;-1.70;99.90
21115;DHT22;10715;48.546;9.896;2023-03-01T05:50:37;-1.70;99.90
21115;DHT22;10715;48.546;9.896;2023-03-01T05:53:04;-1.80;99.90
21115;DHT22;10715;48.546;9.896;2023-03-01T05:55:31;-1.80;99.90
21115;DHT22;10715;48.546;9.896;2023-03-01T05:58:01;-1.80;99.90
21115;DHT22;10715;48.546;9.896;2023-03-01T06:00:28;-1.80;99.90
21115;DHT22;10715;48.546;9.896;2023-03-01T06:02:55;-1.90;99.90
21115;DHT22;10715;48.546;9.896;2023-03-01T06:05:22;-1.90;99.90
21115;DHT22;10715;48.546;9.896;2023-03-01T06:07:48;-1.90;99.90
21115;DHT22;10715;48.546;9.896;2023-03-01T06:10:15;-1.90;99.90
21115;DHT22;10715;48.546;9.896;2023-03-01T06:12:42;-1.90;99.90
21115;DHT22;10715;48.546;9.896;2023-03-01T06:15:10;-2.00;99.90
21115;DHT22;10715;48.546;9.896;2023-03-01T06:17:38;-2.00;99.90
21115;DHT22;10715;48.546;9.896;2023-03-01T06:20:30;-2.00;99.90
21115;DHT22;10715;48.546;9.896;2023-03-01T06:22:56;-2.00;99.90
21115;DHT22;10715;48.546;9.896;2023-03-01T06:25:24;-2.10;99.90
21115;DHT22;10715;48.546;9.896;2023-03-01T06:27:50;-2.10;99.90
21115;DHT22;10715;48.546;9.896;2023-03-01T06:30:20;-2.10;99.90
21115;DHT22;10715;48.546;9.896;2023-03-01T06:32:46;-2.10;99.90
21115;DHT22;10715;48.546;9.896;2023-03-01T06:35:13;-2.10;99.90
21115;DHT22;10715;48.546;9.896;2023-03-01T06:37:40;-2.10;99.90
21115;DHT22;10715;48.546;9.896;2023-03-01T06:40:08;-2.20;99.90
21115;DHT22;10715;48.546;9.896;2023-03-01T06:42:35;-2.20;99.90
21115;DHT22;10715;48.546;9.896;2023-03-01T06:45:01;-2.20;99.90
21115;DHT22;10715;48.546;9.896;2023-03-01T06:47:27;-2.10;99.90
21115;DHT22;10715;48.546;9.896;2023-03-01T06:49:53;-2.10;99.90
21115;DHT22;10715;48.546;9.896;2023-03-01T06:52:18;-2.20;99.90
21115;DHT22;10715;48.546;9.896;2023-03-01T06:54:44;-2.10;99.90
21115;DHT22;10715;48.546;9.896;2023-03-01T06:57:10;-2.10;99.90
21115;DHT22;10715;48.546;9.896;2023-03-01T06:59:35;-2.10;99.90
21115;DHT22;10715;48.546;9.896;2023-03-01T07:02:01;-2.10;99.90
21115;DHT22;10715;48.546;9.896;2023-03-01T07:04:27;-2.10;99.90
21115;DHT22;10715;48.546;9.896;2023-03-01T07:06:54;-2.10;99.90
21115;DHT22;10715;48.546;9.896;2023-03-01T07:09:24;-2.10;99.90
21115;DHT22;10715;48.546;9.896;2023-03-01T07:11:50;-2.10;99.90
21115;DHT22;10715;48.546;9.896;2023-03-01T07:14:16;-2.10;99.90
21115;DHT22;10715;48.546;9.896;2023-03-01T07:16:42;-2.00;99.90
21115;DHT22;10715;48.546;9.896;2023-03-01T07:19:07;-2.00;99.90
21115;DHT22;10715;48.546;9.896;2023-03-01T07:21:33;-2.00;99.90
21115;DHT22;10715;48.546;9.896;2023-03-01T07:23:59;-2.00;99.90
21115;DHT22;10715;48.546;9.896;2023-03-01T07:26:24;-2.00;99.90
21115;DHT22;10715;48.546;9.896;2023-03-01T07:28:50;-1.90;99.90
21115;DHT22;10715;48.546;9.896;2023-03-01T07:31:16;-1.90;99.90
21115;DHT22;10715;48.546;9.896;2023-03-01T07:33:41;-1.90;99.90
21115;DHT22;10715;48.546;9.896;2023-03-01T07:36:07;-1.90;99.90
21115;DHT22;10715;48.546;9.896;2023-03-01T07:38:34;-1.80;99.90
21115;DHT22;10715;48.546;9.896;2023-03-01T07:41:01;-1.80;99.90
21115;DHT22;10715;48.546;9.896;2023-03-01T07:43:28;-1.80;99.90
21115;DHT22;10715;48.546;9.896;2023-03-01T07:45:54;-1.70;99.90
21115;DHT22;10715;48.546;9.896;2023-03-01T07:48:22;-1.70;99.90
21115;DHT22;10715;48.546;9.896;2023-03-01T07:50:48;-1.70;99.90
21115;DHT22;10715;48.546;9.896;2023-03-01T07:53:14;-1.60;99.90
21115;DHT22;10715;48.546;9.896;2023-03-01T07:55:39;-1.60;99.90
21115;DHT22;10715;48.546;9.896;2023-03-01T07:58:05;-1.60;99.90
21115;DHT22;10715;48.546;9.896;2023-03-01T08:00:31;-1.50;99.90
21115;DHT22;10715;48.546;9.896;2023-03-01T08:02:59;-1.50;99.90
21115;DHT22;10715;48.546;9.896;2023-03-01T08:05:26;-1.50;99.90
21115;DHT22;10715;48.546;9.896;2023-03-01T08:07:52;-1.40;99.90
21115;DHT22;10715;48.546;9.896;2023-03-01T08:10:18;-1.40;99.90
21115;DHT22;10715;48.546;9.896;2023-03-01T08:12:44;-1.30;99.90
21115;DHT22;10715;48.546;9.896;2023-03-01T08:15:10;-1.30;99.90
21115;DHT22;10715;48.546;9.896;2023-03-01T08:17:36;-1.20;99.90
21115;DHT22;10715;48.546;9.896;2023-03-01T08:20:02;-1.20;99.90
21115;DHT22;10715;48.546;9.896;2023-03-01T08:22:29;-1.20;99.90
21115;DHT22;10715;48.546;9.896;2023-03-01T08:24:55;-1.20;99.90
21115;DHT22;10715;48.546;9.896;2023-03-01T08:27:21;-1.20;99.90
21115;DHT22;10715;48.546;9.896;2023-03-01T08:29:47;-1.20;99.90
21115;DHT22;10715;48.546;9.896;2023-03-01T08:32:12;-1.10;99.90
21115;DHT22;10715;48.546;9.896;2023-03-01T08:34:38;-1.10;99.90
21115;DHT22;10715;48.546;9.896;2023-03-01T08:37:04;-1.10;99.90
21115;DHT22;10715;48.546;9.896;2023-03-01T08:39:30;-1.10;99.90
21115;DHT22;10715;48.546;9.896;2023-03-01T08:41:57;-1.00;99.90
21115;DHT22;10715;48.546;9.896;2023-03-01T08:44:22;-1.00;99.90
21115;DHT22;10715;48.546;9.896;2023-03-01T08:46:48;-0.90;99.90
21115;DHT22;10715;48.546;9.896;2023-03-01T08:49:18;-0.90;99.90
21115;DHT22;10715;48.546;9.896;2023-03-01T08:51:45;-0.80;99.90
21115;DHT22;10715;48.546;9.896;2023-03-01T08:54:17;-0.80;99.90
21115;DHT22;10715;48.546;9.896;2023-03-01T08:56:44;-0.80;99.90
21115;DHT22;10715;48.546;9.896;2023-03-01T08:59:14;-0.70;99.90
21115;DHT22;10715;48.546;9.896;2023-03-01T09:01:41;-0.70;99.90
21115;DHT22;10715;48.546;9.896;2023-03-01T09:04:09;-0.60;99.90
21115;DHT22;10715;48.546;9.896;2023-03-01T09:06:35;-0.50;99.90
21115;DHT22;10715;48.546;9.896;2023-03-01T09:09:03;-0.50;99.90
21115;DHT22;10715;48.546;9.896;2023-03-01T09:11:29;-0.40;99.90
21115;DHT22;10715;48.546;9.896;2023-03-01T09:13:55;-0.40;99.90
21115;DHT22;10715;48.546;9.896;2023-03-01T09:16:21;-0.40;99.90
21115;DHT22;10715;48.546;9.896;2023-03-01T09:18:53;-0.30;99.90
21115;DHT22;10715;48.546;9.896;2023-03-01T09:21:20;-0.30;99.90
21115;DHT22;10715;48.546;9.896;2023-03-01T09:23:47;-0.20;99.90
21115;DHT22;10715;48.546;9.896;2023-03-01T09:26:21;-0.20;99.90
21115;DHT22;10715;48.546;9.896;2023-03-01T09:28:49;-0.20;99.90
21115;DHT22;10715;48.546;9.896;2023-03-01T09:31:16;-0.10;99.90
21115;DHT22;10715;48.546;9.896;2023-03-01T09:33:42;0.00;99.90
21115;DHT22;10715;48.546;9.896;2023-03-01T09:36:12;0.00;99.90
21115;DHT22;10715;48.546;9.896;2023-03-01T09:38:39;0.10;99.90
21115;DHT22;10715;48.546;9.896;2023-03-01T09:41:17;0.20;99.90
21115;DHT22;10715;48.546;9.896;2023-03-01T09:43:51;0.30;99.90
21115;DHT22;10715;48.546;9.896;2023-03-01T09:46:23;0.30;99.90
21115;DHT22;10715;48.546;9.896;2023-03-01T09:49:02;0.40;99.90
21115;DHT22;10715;48.546;9.896;2023-03-01T09:51:34;0.40;99.90
21115;DHT22;10715;48.546;9.896;2023-03-01T09:54:04;0.50;99.90
21115;DHT22;10715;48.546;9.896;2023-03-01T09:56:40;0.60;99.90
21115;DHT22;10715;48.546;9.896;2023-03-01T10:01:53;0.80;99.90
21115;DHT22;10715;48.546;9.896;2023-03-01T10:07:17;1.10;99.90
21115;DHT22;10715;48.546;9.896;2023-03-01T10:09:46;1.20;99.90
21115;DHT22;10715;48.546;9.896;2023-03-01T10:12:16;1.30;99.90
21115;DHT22;10715;48.546;9.896;2023-03-01T10:20:21;1.60;99.90
21115;DHT22;10715;48.546;9.896;2023-03-01T10:22:48;1.60;99.90
21115;DHT22;10715;48.546;9.896;2023-03-01T10:28:03;1.70;99.90
21115;DHT22;10715;48.546;9.896;2023-03-01T10:30:39;1.70;99.90
21115;DHT22;10715;48.546;9.896;2023-03-01T10:35:44;1.80;99.90
21115;DHT22;10715;48.546;9.896;2023-03-01T10:38:12;1.80;99.90
21115;DHT22;10715;48.546;9.896;2023-03-01T10:40:54;1.90;99.90
21115;DHT22;10715;48.546;9.896;2023-03-01T10:43:20;1.90;99.90
21115;DHT22;10715;48.546;9.896;2023-03-01T10:45:46;1.90;99.90
21115;DHT22;10715;48.546;9.896;2023-03-01T10:51:12;1.90;99.90
21115;DHT22;10715;48.546;9.896;2023-03-01T10:53:41;1.90;99.90
21115;DHT22;10715;48.546;9.896;2023-03-01T10:56:13;1.90;99.90
21115;DHT22;10715;48.546;9.896;2023-03-01T10:58:41;1.90;99.90
21115;DHT22;10715;48.546;9.896;2023-03-01T11:06:32;2.00;99.90
21115;DHT22;10715;48.546;9.896;2023-03-01T11:11:38;2.00;99.90
21115;DHT22;10715;48.546;9.896;2023-03-01T11:14:16;2.00;99.90
21115;DHT22;10715;48.546;9.896;2023-03-01T11:16:44;2.00;99.90
21115;DHT22;10715;48.546;9.896;2023-03-01T11:24:17;2.10;99.90
21115;DHT22;10715;48.546;9.896;2023-03-01T11:26:53;2.20;99.90
21115;DHT22;10715;48.546;9.896;2023-03-01T11:29:39;2.20;99.90
21115;DHT22;10715;48.546;9.896;2023-03-01T11:32:09;2.20;99.90
21115;DHT22;10715;48.546;9.896;2023-03-01T11:40:27;2.30;99.90
21115;DHT22;10715;48.546;9.896;2023-03-01T11:54:13;2.50;99.90
21115;DHT22;10715;48.546;9.896;2023-03-01T12:13:42;2.90;99.90
21115;DHT22;10715;48.546;9.896;2023-03-01T12:21:45;2.90;99.90
21115;DHT22;10715;48.546;9.896;2023-03-01T12:27:18;3.00;99.90
21115;DHT22;10715;48.546;9.896;2023-03-01T12:29:59;3.00;99.90
21115;DHT22;10715;48.546;9.896;2023-03-01T12:41:20;3.00;99.90
21115;DHT22;10715;48.546;9.896;2023-03-01T12:44:00;3.00;99.90
21115;DHT22;10715;48.546;9.896;2023-03-01T12:49:49;3.10;99.90
21115;DHT22;10715;48.546;9.896;2023-03-01T12:52:51;3.10;99.90
21115;DHT22;10715;48.546;9.896;2023-03-01T12:55:24;3.20;99.90
21115;DHT22;10715;48.546;9.896;2023-03-01T13:00:28;3.30;99.90
21115;DHT22;10715;48.546;9.896;2023-03-01T13:08:20;3.40;99.90
21115;DHT22;10715;48.546;9.896;2023-03-01T13:10:51;3.40;99.90
21115;DHT22;10715;48.546;9.896;2023-03-01T13:13:21;3.50;99.90
21115;DHT22;10715;48.546;9.896;2023-03-01T13:15:48;3.50;99.90
21115;DHT22;10715;48.546;9.896;2023-03-01T13:20:50;3.60;99.90
21115;DHT22;10715;48.546;9.896;2023-03-01T13:26:14;3.70;99.90
21115;DHT22;10715;48.546;9.896;2023-03-01T13:33:47;3.80;99.90
21115;DHT22;10715;48.546;9.896;2023-03-01T13:41:53;3.80;99.90
21115;DHT22;10715;48.546;9.896;2023-03-01T13:44:30;3.90;99.90
21115;DHT22;10715;48.546;9.896;2023-03-01T13:49:48;3.90;99.90
21115;DHT22;10715;48.546;9.896;2023-03-01T13:52:43;3.90;99.90
21115;DHT22;10715;48.546;9.896;2023-03-01T13:55:34;4.00;99.90
21115;DHT22;10715;48.546;9.896;2023-03-01T13:58:12;4.00;99.90
21115;DHT22;10715;48.546;9.896;2023-03-01T14:00:40;4.00;99.90
21115;DHT22;10715;48.546;9.896;2023-03-01T14:03:18;4.00;99.90
21115;DHT22;10715;48.546;9.896;2023-03-01T14:06:23;4.10;99.90
21115;DHT22;10715;48.546;9.896;2023-03-01T14:09:00;4.10;99.90
21115;DHT22;10715;48.546;9.896;2023-03-01T14:11:43;4.10;99.90
21115;DHT22;10715;48.546;9.896;2023-03-01T14:14:31;4.10;99.90
21115;DHT22;10715;48.546;9.896;2023-03-01T14:19:35;4.20;99.90
21115;DHT22;10715;48.546;9.896;2023-03-01T14:24:56;4.30;99.90
21115;DHT22;10715;48.546;9.896;2023-03-01T14:27:25;4.30;99.90
21115;DHT22;10715;48.546;9.896;2023-03-01T14:30:03;4.30;99.90
21115;DHT22;10715;48.546;9.896;2023-03-01T14:32:35;4.30;99.90
21115;DHT22;10715;48.546;9.896;2023-03-01T14:35:01;4.30;99.90
21115;DHT22;10715;48.546;9.896;2023-03-01T14:37:34;4.40;99.90
21115;DHT22;10715;48.546;9.896;2023-03-01T14:40:02;4.40;99.90
21115;DHT22;10715;48.546;9.896;2023-03-01T14:42:35;4.40;99.90
21115;DHT22;10715;48.546;9.896;2023-03-01T14:45:02;4.40;99.90
21115;DHT22;10715;48.546;9.896;2023-03-01T14:47:32;4.40;99.90
21115;DHT22;10715;48.546;9.896;2023-03-01T14:53:19;4.40;99.90
21115;DHT22;10715;48.546;9.896;2023-03-01T14:55:58;4.40;99.90
21115;DHT22;10715;48.546;9.896;2023-03-01T14:58:27;4.40;99.90
21115;DHT22;10715;48.546;9.896;2023-03-01T15:01:00;4.40;99.90
21115;DHT22;10715;48.546;9.896;2023-03-01T15:03:41;4.40;99.90
21115;DHT22;10715;48.546;9.896;2023-03-01T15:06:11;4.40;99.90
21115;DHT22;10715;48.546;9.896;2023-03-01T15:08:42;4.40;99.90
21115;DHT22;10715;48.546;9.896;2023-03-01T15:13:53;4.40;99.90
21115;DHT22;10715;48.546;9.896;2023-03-01T15:16:23;4.40;99.90
21115;DHT22;10715;48.546;9.896;2023-03-01T15:19:04;4.40;99.90
21115;DHT22;10715;48.546;9.896;2023-03-01T15:21:36;4.40;99.90
21115;DHT22;10715;48.546;9.896;2023-03-01T15:26:47;4.40;99.90
21115;DHT22;10715;48.546;9.896;2023-03-01T15:29:22;4.40;99.90
21115;DHT22;10715;48.546;9.896;2023-03-01T15:32:03;4.50;99.90
21115;DHT22;10715;48.546;9.896;2023-03-01T15:34:37;4.40;99.90
21115;DHT22;10715;48.546;9.896;2023-03-01T15:37:04;4.40;99.90
21115;DHT22;10715;48.546;9.896;2023-03-01T15:39:38;4.40;99.90
21115;DHT22;10715;48.546;9.896;2023-03-01T15:42:12;4.40;99.90
21115;DHT22;10715;48.546;9.896;2023-03-01T15:44:42;4.40;99.90
21115;DHT22;10715;48.546;9.896;2023-03-01T15:47:31;4.40;99.90
21115;DHT22;10715;48.546;9.896;2023-03-01T15:49:58;4.40;99.90
21115;DHT22;10715;48.546;9.896;2023-03-01T15:52:32;4.40;99.90
21115;DHT22;10715;48.546;9.896;2023-03-01T15:55:05;4.40;99.90
21115;DHT22;10715;48.546;9.896;2023-03-01T15:57:31;4.30;99.90
21115;DHT22;10715;48.546;9.896;2023-03-01T15:59:57;4.30;99.90
21115;DHT22;10715;48.546;9.896;2023-03-01T16:02:23;4.30;99.90
21115;DHT22;10715;48.546;9.896;2023-03-01T16:04:50;4.30;99.90
21115;DHT22;10715;48.546;9.896;2023-03-01T16:07:16;4.20;99.90
21115;DHT22;10715;48.546;9.896;2023-03-01T16:09:42;4.30;99.90
21115;DHT22;10715;48.546;9.896;2023-03-01T16:12:14;4.20;99.90
21115;DHT22;10715;48.546;9.896;2023-03-01T16:14:40;4.20;99.90
21115;DHT22;10715;48.546;9.896;2023-03-01T16:17:06;4.20;99.90
21115;DHT22;10715;48.546;9.896;2023-03-01T16:19:35;4.20;99.90
21115;DHT22;10715;48.546;9.896;2023-03-01T16:22:03;4.20;99.90
21115;DHT22;10715;48.546;9.896;2023-03-01T16:24:28;4.10;99.90
21115;DHT22;10715;48.546;9.896;2023-03-01T16:26:54;4.10;99.90
21115;DHT22;10715;48.546;9.896;2023-03-01T16:29:20;4.10;99.90
21115;DHT22;10715;48.546;9.896;2023-03-01T16:31:45;4.00;99.90
21115;DHT22;10715;48.546;9.896;2023-03-01T16:34:12;4.00;99.90
21115;DHT22;10715;48.546;9.896;2023-03-01T16:36:38;4.00;99.90
21115;DHT22;10715;48.546;9.896;2023-03-01T16:39:04;4.00;99.90
21115;DHT22;10715;48.546;9.896;2023-03-01T16:41:30;3.90;99.90
21115;DHT22;10715;48.546;9.896;2023-03-01T16:43:56;3.90;99.90
21115;DHT22;10715;48.546;9.896;2023-03-01T16:46:24;3.90;99.90
21115;DHT22;10715;48.546;9.896;2023-03-01T16:48:50;3.80;99.90
21115;DHT22;10715;48.546;9.896;2023-03-01T16:51:16;3.80;99.90
21115;DHT22;10715;48.546;9.896;2023-03-01T16:53:42;3.80;99.90
21115;DHT22;10715;48.546;9.896;2023-03-01T16:56:11;3.80;99.90
21115;DHT22;10715;48.546;9.896;2023-03-01T16:58:38;3.70;99.90
21115;DHT22;10715;48.546;9.896;2023-03-01T17:01:18;3.70;99.90
21115;DHT22;10715;48.546;9.896;2023-03-01T17:03:46;3.70;99.90
21115;DHT22;10715;48.546;9.896;2023-03-01T17:06:14;3.60;99.90
21115;DHT22;10715;48.546;9.896;2023-03-01T17:08:40;3.60;99.90
21115;DHT22;10715;48.546;9.896;2023-03-01T17:11:11;3.50;99.90
21115;DHT22;10715;48.546;9.896;2023-03-01T17:13:38;3.50;99.90
21115;DHT22;10715;48.546;9.896;2023-03-01T17:16:10;3.40;99.90
21115;DHT22;10715;48.546;9.896;2023-03-01T17:18:36;3.30;99.90
21115;DHT22;10715;48.546;9.896;2023-03-01T17:21:04;3.20;99.90
21115;DHT22;10715;48.546;9.896;2023-03-01T17:23:30;3.10;99.90
21115;DHT22;10715;48.546;9.896;2023-03-01T17:25:57;3.00;99.90
21115;DHT22;10715;48.546;9.896;2023-03-01T17:28:25;3.00;99.90
21115;DHT22;10715;48.546;9.896;2023-03-01T17:30:51;2.90;99.90
21115;DHT22;10715;48.546;9.896;2023-03-01T17:33:18;2.80;99.90
21115;DHT22;10715;48.546;9.896;2023-03-01T17:35:44;2.80;99.90
21115;DHT22;10715;48.546;9.896;2023-03-01T17:38:12;2.70;99.90
21115;DHT22;10715;48.546;9.896;2023-03-01T17:40:40;2.60;99.90
21115;DHT22;10715;48.546;9.896;2023-03-01T17:43:06;2.50;99.90
21115;DHT22;10715;48.546;9.896;2023-03-01T17:45:32;2.40;99.90
21115;DHT22;10715;48.546;9.896;2023-03-01T17:47:57;2.30;99.90
21115;DHT22;10715;48.546;9.896;2023-03-01T17:50:23;2.30;99.90
21115;DHT22;10715;48.546;9.896;2023-03-01T17:52:48;2.20;99.90
21115;DHT22;10715;48.546;9.896;2023-03-01T17:55:14;2.10;99.90
21115;DHT22;10715;48.546;9.896;2023-03-01T17:57:40;2.10;99.90
21115;DHT22;10715;48.546;9.896;2023-03-01T18:00:09;2.00;99.90
21115;DHT22;10715;48.546;9.896;2023-03-01T18:02:36;2.00;99.90
21115;DHT22;10715;48.546;9.896;2023-03-01T18:05:02;1.90;99.90
21115;DHT22;10715;48.546;9.896;2023-03-01T18:07:29;1.90;99.90
21115;DHT22;10715;48.546;9.896;2023-03-01T18:09:55;1.80;99.90
21115;DHT22;10715;48.546;9.896;2023-03-01T18:12:21;1.80;99.90
21115;DHT22;10715;48.546;9.896;2023-03-01T18:14:48;1.80;99.90
21115;DHT22;10715;48.546;9.896;2023-03-01T18:17:19;1.70;99.90